Time;durP1;ratioP1;P1;durP2;ratioP2;P2;SDS_P1;SDS_P2;PMS_P1;PMS_P2;Temp;Humidity;BMP_temperature;BMP_pressure;BME280_temperature;BME280_humidity;BME280_pressure;Samples;Min_cycle;Max_cycle;Signal;HPM_P1;HPM_P2
2024/03/25 00:00:18;;;;;;;2.90;1.08;;;;;;;;;;5073272;28;20036;-59
2024/03/25 00:02:43;;;;;;;2.63;1.23;;;;;;;;;;5072852;28;20040;-59
2024/03/25 00:05:09;;;;;;;4.75;1.23;;;;;;;;;;5072875;28;20459;-61
2024/03/25 00:07:35;;;;;;;2.30;1.17;;;;;;;;;;5072183;28;20037;-60
2024/03/25 00:10:00;;;;;;;2.38;0.90;;;;;;;;;;5055122;28;20033;-61
2024/03/25 00:12:26;;;;;;;2.70;1.00;;;;;;;;;;5072788;28;20089;-58
2024/03/25 00:14:51;;;;;;;2.55;1.10;;;;;;;;;;5072809;28;20044;-56
2024/03/25 00:17:17;;;;;;;3.20;1.15;;;;;;;;;;5072549;28;20036;-61
2024/03/25 00:19:42;;;;;;;3.30;1.00;;;;;;;;;;5072758;28;20047;-60
2024/03/25 00:22:07;;;;;;;2.88;1.20;;;;;;;;;;5071923;28;20032;-61
2024/03/25 00:24:33;;;;;;;2.22;1.05;;;;;;;;;;5072647;28;20494;-60
2024/03/25 00:26:58;;;;;;;3.20;1.30;;;;;;;;;;5073020;28;20106;-58
2024/03/25 00:29:23;;;;;;;3.15;1.30;;;;;;;;;;5072212;28;20041;-55
2024/03/25 00:31:49;;;;;;;2.70;1.20;;;;;;;;;;5072563;28;20060;-56
2024/03/25 00:34:14;;;;;;;2.10;0.90;;;;;;;;;;5072041;28;20060;-55
2024/03/25 00:36:40;;;;;;;3.47;1.10;;;;;;;;;;5070708;28;20040;-52
2024/03/25 00:39:05;;;;;;;3.35;1.00;;;;;;;;;;5071831;28;20055;-55
2024/03/25 00:41:31;;;;;;;3.53;1.20;;;;;;;;;;5054465;28;20099;-52
2024/03/25 00:43:56;;;;;;;2.35;1.20;;;;;;;;;;5072434;28;20054;-57
2024/03/25 00:46:22;;;;;;;3.17;1.25;;;;;;;;;;5071788;28;20367;-56
2024/03/25 00:48:47;;;;;;;3.08;1.17;;;;;;;;;;5071863;28;20472;-56
2024/03/25 00:51:13;;;;;;;2.60;1.10;;;;;;;;;;5072307;28;20112;-54
2024/03/25 00:53:38;;;;;;;3.30;1.25;;;;;;;;;;5071523;28;20496;-52
2024/03/25 00:56:03;;;;;;;2.33;1.00;;;;;;;;;;5072097;28;20041;-55
2024/03/25 00:58:29;;;;;;;2.15;0.98;;;;;;;;;;5072177;28;20109;-53
2024/03/25 01:00:54;;;;;;;1.77;1.00;;;;;;;;;;5071604;28;20049;-52
2024/03/25 01:03:19;;;;;;;3.15;1.13;;;;;;;;;;5071664;28;20119;-56
2024/03/25 01:05:45;;;;;;;3.25;1.00;;;;;;;;;;5072151;28;20111;-56
2024/03/25 01:08:11;;;;;;;2.58;1.08;;;;;;;;;;5071321;28;20036;-52
2024/03/25 01:10:37;;;;;;;1.67;0.95;;;;;;;;;;5071896;28;20132;-51
2024/03/25 01:13:02;;;;;;;1.90;0.90;;;;;;;;;;5071893;28;20531;-54
2024/03/25 01:15:27;;;;;;;3.60;1.13;;;;;;;;;;5071526;28;20388;-56
2024/03/25 01:17:53;;;;;;;2.78;0.90;;;;;;;;;;5071528;28;20391;-55
2024/03/25 01:20:18;;;;;;;2.10;0.90;;;;;;;;;;5071566;28;20060;-55
2024/03/25 01:22:43;;;;;;;2.63;1.10;;;;;;;;;;5071602;28;20454;-56
2024/03/25 01:25:09;;;;;;;2.05;0.90;;;;;;;;;;5071339;28;20454;-51
2024/03/25 01:27:35;;;;;;;2.53;1.00;;;;;;;;;;5071442;28;20541;-53
2024/03/25 01:30:01;;;;;;;2.17;0.80;;;;;;;;;;5071564;28;20033;-50
2024/03/25 01:32:26;;;;;;;2.60;1.10;;;;;;;;;;5070956;28;20032;-54
2024/03/25 01:34:51;;;;;;;3.78;1.08;;;;;;;;;;5070973;28;20039;-55
2024/03/25 01:37:17;;;;;;;1.90;0.90;;;;;;;;;;5071135;28;20070;-55
2024/03/25 01:39:43;;;;;;;2.67;1.10;;;;;;;;;;5071217;28;20119;-52
2024/03/25 01:42:09;;;;;;;3.70;1.33;;;;;;;;;;5071150;28;20039;-56
2024/03/25 01:44:34;;;;;;;3.50;1.00;;;;;;;;;;5071304;28;20452;-52
2024/03/25 01:46:59;;;;;;;4.15;1.33;;;;;;;;;;5071183;28;20032;-54
2024/03/25 01:49:25;;;;;;;2.08;1.00;;;;;;;;;;5070318;28;20067;-53
2024/03/25 01:51:50;;;;;;;1.98;1.02;;;;;;;;;;5071015;28;20047;-56
2024/03/25 01:54:16;;;;;;;2.20;1.00;;;;;;;;;;5052299;28;20032;-55
2024/03/25 01:56:42;;;;;;;1.48;0.80;;;;;;;;;;5070539;28;20094;-55
2024/03/25 01:59:08;;;;;;;1.98;0.80;;;;;;;;;;5071040;28;20115;-54
2024/03/25 02:01:34;;;;;;;1.95;0.90;;;;;;;;;;5070729;28;20035;-51
2024/03/25 02:03:59;;;;;;;2.38;0.90;;;;;;;;;;5052393;28;20043;-53
2024/03/25 02:06:26;;;;;;;2.30;0.95;;;;;;;;;;5070742;28;20043;-56
2024/03/25 02:08:52;;;;;;;1.88;0.80;;;;;;;;;;5070467;28;20041;-56
2024/03/25 02:11:18;;;;;;;3.08;0.98;;;;;;;;;;5069456;28;20395;-56
2024/03/25 02:13:43;;;;;;;1.90;1.08;;;;;;;;;;5070432;28;20032;-56
2024/03/25 02:16:09;;;;;;;2.10;0.90;;;;;;;;;;5068520;28;20578;-54
2024/03/25 02:18:34;;;;;;;2.20;1.00;;;;;;;;;;5070214;28;20060;-54
2024/03/25 02:21:00;;;;;;;3.33;0.90;;;;;;;;;;5070159;28;20068;-59
2024/03/25 02:23:28;;;;;;;2.50;1.10;;;;;;;;;;5070138;28;20043;-60
2024/03/25 02:25:54;;;;;;;2.35;1.17;;;;;;;;;;5070564;28;20472;-59
2024/03/25 02:28:19;;;;;;;1.77;0.90;;;;;;;;;;5070106;28;20060;-60
2024/03/25 02:30:45;;;;;;;2.00;1.00;;;;;;;;;;5070473;28;20032;-61
2024/03/25 02:33:10;;;;;;;2.53;1.15;;;;;;;;;;5069854;28;20506;-61
2024/03/25 02:35:36;;;;;;;1.98;1.00;;;;;;;;;;5069990;28;20063;-60
2024/03/25 02:38:03;;;;;;;1.75;0.85;;;;;;;;;;5052219;28;20036;-58
2024/03/25 02:40:28;;;;;;;1.80;0.95;;;;;;;;;;5070027;28;20041;-61
2024/03/25 02:42:54;;;;;;;2.55;1.00;;;;;;;;;;5070030;28;20582;-56
2024/03/25 02:45:19;;;;;;;1.85;0.90;;;;;;;;;;5069289;28;20036;-53
2024/03/25 02:47:45;;;;;;;1.58;0.82;;;;;;;;;;5069982;28;20052;-57
2024/03/25 02:50:11;;;;;;;2.22;0.90;;;;;;;;;;5057366;28;20033;-56
2024/03/25 02:52:36;;;;;;;4.88;1.23;;;;;;;;;;5068370;28;20166;-56
2024/03/25 02:55:01;;;;;;;2.08;1.10;;;;;;;;;;5069402;28;20101;-55
2024/03/25 02:57:27;;;;;;;3.00;1.00;;;;;;;;;;5070091;28;20041;-54
2024/03/25 02:59:52;;;;;;;1.65;0.80;;;;;;;;;;5069081;28;20036;-56
2024/03/25 03:02:17;;;;;;;2.67;0.80;;;;;;;;;;5069866;28;20048;-57
2024/03/25 03:04:43;;;;;;;1.52;0.82;;;;;;;;;;5070459;28;20036;-56
2024/03/25 03:07:08;;;;;;;1.75;0.93;;;;;;;;;;5074018;28;20831;-56
2024/03/25 03:09:33;;;;;;;1.98;0.70;;;;;;;;;;5074089;28;20460;-56
2024/03/25 03:11:59;;;;;;;2.28;0.95;;;;;;;;;;5073807;28;20495;-53
2024/03/25 03:14:24;;;;;;;2.15;1.20;;;;;;;;;;5073138;28;20107;-57
2024/03/25 03:16:54;;;;;;;1.85;0.80;;;;;;;;;;5074014;28;20098;-57
2024/03/25 03:19:19;;;;;;;2.35;0.73;;;;;;;;;;5073722;28;20053;-56
2024/03/25 03:21:44;;;;;;;1.70;0.73;;;;;;;;;;5074201;28;20043;-54
2024/03/25 03:24:10;;;;;;;2.25;0.93;;;;;;;;;;5073062;28;20040;-56
2024/03/25 03:26:35;;;;;;;1.15;0.73;;;;;;;;;;5074049;28;20120;-56
2024/03/25 03:29:00;;;;;;;1.63;0.80;;;;;;;;;;5073332;28;20089;-57
2024/03/25 03:31:26;;;;;;;2.00;1.00;;;;;;;;;;5073462;28;20090;-54
2024/03/25 03:33:51;;;;;;;1.42;0.70;;;;;;;;;;5071372;28;20028;-56
2024/03/25 03:36:18;;;;;;;1.30;0.73;;;;;;;;;;5073987;28;20040;-56
2024/03/25 03:38:44;;;;;;;2.58;0.75;;;;;;;;;;5073008;28;20040;-55
2024/03/25 03:41:10;;;;;;;2.33;1.00;;;;;;;;;;5073704;28;20032;-55
2024/03/25 03:43:35;;;;;;;2.42;0.85;;;;;;;;;;5069171;28;20040;-56
2024/03/25 03:46:01;;;;;;;1.50;0.77;;;;;;;;;;5072765;28;20071;-55
2024/03/25 03:48:27;;;;;;;1.52;0.80;;;;;;;;;;5072220;28;20408;-55
2024/03/25 03:50:52;;;;;;;2.83;0.98;;;;;;;;;;5073345;28;20040;-56
2024/03/25 03:53:17;;;;;;;2.20;1.00;;;;;;;;;;5073420;28;20629;-56
2024/03/25 03:55:53;;;;;;;2.78;0.90;;;;;;;;;;5072753;28;20460;-59
2024/03/25 03:58:18;;;;;;;2.08;0.90;;;;;;;;;;5073511;28;20029;-60
2024/03/25 04:00:44;;;;;;;1.92;0.80;;;;;;;;;;5073245;28;20041;-61
2024/03/25 04:03:09;;;;;;;1.98;0.90;;;;;;;;;;5070140;28;20044;-60
2024/03/25 04:05:34;;;;;;;2.38;0.80;;;;;;;;;;5073013;28;20083;-60
2024/03/25 04:08:00;;;;;;;2.67;0.95;;;;;;;;;;5073195;28;20372;-60
2024/03/25 04:10:26;;;;;;;2.35;0.80;;;;;;;;;;5072551;28;20029;-53
2024/03/25 04:12:52;;;;;;;2.60;0.90;;;;;;;;;;5072742;28;20101;-56
2024/03/25 04:15:17;;;;;;;2.72;0.90;;;;;;;;;;5072946;28;20430;-54
2024/03/25 04:17:44;;;;;;;2.28;0.85;;;;;;;;;;5071927;28;20028;-54
2024/03/25 04:20:14;;;;;;;1.55;0.80;;;;;;;;;;5072324;28;20517;-53
2024/03/25 04:22:43;;;;;;;2.20;0.88;;;;;;;;;;5073088;28;20028;-56
2024/03/25 04:25:12;;;;;;;1.33;0.75;;;;;;;;;;5072946;28;20155;-56
2024/03/25 04:27:41;;;;;;;1.50;0.82;;;;;;;;;;5072405;28;20115;-53
2024/03/25 04:30:08;;;;;;;2.10;0.80;;;;;;;;;;5072665;28;20078;-54
2024/03/25 04:32:33;;;;;;;1.73;0.82;;;;;;;;;;5072335;28;20040;-53
2024/03/25 04:34:59;;;;;;;2.35;0.80;;;;;;;;;;5071933;28;20442;-56
2024/03/25 04:37:24;;;;;;;2.08;0.90;;;;;;;;;;5072576;28;20063;-56
2024/03/25 04:39:50;;;;;;;3.67;0.90;;;;;;;;;;5072514;28;20044;-53
2024/03/25 04:42:15;;;;;;;1.70;0.80;;;;;;;;;;5072303;28;20487;-52
2024/03/25 04:44:40;;;;;;;1.48;0.80;;;;;;;;;;5072691;28;20052;-54
2024/03/25 04:47:06;;;;;;;2.22;0.85;;;;;;;;;;5071860;28;20533;-54
2024/03/25 04:49:31;;;;;;;1.90;0.80;;;;;;;;;;5071854;28;20047;-53
2024/03/25 04:51:56;;;;;;;2.17;0.70;;;;;;;;;;5072125;28;20035;-56
2024/03/25 04:54:22;;;;;;;2.50;0.80;;;;;;;;;;5072419;28;20044;-52
2024/03/25 04:56:47;;;;;;;2.92;1.02;;;;;;;;;;5072331;28;20048;-54
2024/03/25 04:59:12;;;;;;;1.90;0.90;;;;;;;;;;5071701;28;20119;-56
2024/03/25 05:01:38;;;;;;;1.25;0.70;;;;;;;;;;5072161;28;20036;-51
2024/03/25 05:04:03;;;;;;;1.40;0.65;;;;;;;;;;5071808;28;20461;-54
2024/03/25 05:06:28;;;;;;;1.70;0.80;;;;;;;;;;5071936;28;20494;-56
2024/03/25 05:08:54;;;;;;;1.38;0.80;;;;;;;;;;5071999;28;20040;-55
2024/03/25 05:11:19;;;;;;;1.85;0.75;;;;;;;;;;5072068;28;20069;-54
2024/03/25 05:13:44;;;;;;;1.08;0.70;;;;;;;;;;5071337;28;20036;-54
2024/03/25 05:16:10;;;;;;;0.80;0.52;;;;;;;;;;5072005;28;20055;-53
2024/03/25 05:18:36;;;;;;;1.63;0.70;;;;;;;;;;5071738;28;20037;-54
2024/03/25 05:21:01;;;;;;;1.83;0.80;;;;;;;;;;5071487;28;20050;-55
2024/03/25 05:23:27;;;;;;;1.80;0.82;;;;;;;;;;5067574;28;20033;-55
2024/03/25 05:25:52;;;;;;;1.67;0.80;;;;;;;;;;5070339;28;20044;-56
2024/03/25 05:28:17;;;;;;;1.50;0.80;;;;;;;;;;5070408;28;20037;-56
2024/03/25 05:30:42;;;;;;;1.60;0.77;;;;;;;;;;5070956;28;20037;-51
2024/03/25 05:33:08;;;;;;;1.20;0.68;;;;;;;;;;5070750;28;20070;-56
2024/03/25 05:35:36;;;;;;;1.52;0.73;;;;;;;;;;5071018;28;20103;-51
2024/03/25 05:38:03;;;;;;;3.35;1.00;;;;;;;;;;5070704;28;20067;-51
2024/03/25 05:40:28;;;;;;;1.55;0.65;;;;;;;;;;5071546;28;20040;-56
2024/03/25 05:42:54;;;;;;;1.70;0.70;;;;;;;;;;5071355;28;20685;-54
2024/03/25 05:45:19;;;;;;;1.33;0.65;;;;;;;;;;5070880;28;20114;-55
2024/03/25 05:47:44;;;;;;;1.25;0.60;;;;;;;;;;5071030;28;20048;-56
2024/03/25 05:50:10;;;;;;;1.63;0.75;;;;;;;;;;5070793;28;20032;-56
2024/03/25 05:52:35;;;;;;;1.95;0.75;;;;;;;;;;5070803;28;20036;-54
2024/03/25 05:55:01;;;;;;;2.72;0.70;;;;;;;;;;5070713;28;20094;-55
2024/03/25 05:57:26;;;;;;;1.50;0.68;;;;;;;;;;5071074;28;20024;-54
2024/03/25 05:59:52;;;;;;;2.22;0.75;;;;;;;;;;5070789;28;20041;-56
2024/03/25 06:02:17;;;;;;;0.82;0.57;;;;;;;;;;5070133;28;20044;-54
2024/03/25 06:04:42;;;;;;;1.83;0.60;;;;;;;;;;5070738;28;20041;-56
2024/03/25 06:07:08;;;;;;;1.52;0.70;;;;;;;;;;5070893;28;20489;-54
2024/03/25 06:09:33;;;;;;;1.10;0.60;;;;;;;;;;5070490;28;20036;-55
2024/03/25 06:11:59;;;;;;;1.55;0.80;;;;;;;;;;5070556;28;20024;-56
2024/03/25 06:14:24;;;;;;;1.65;0.80;;;;;;;;;;5070947;28;20036;-53
2024/03/25 06:16:49;;;;;;;1.35;0.70;;;;;;;;;;5070366;28;20036;-56
2024/03/25 06:19:15;;;;;;;0.93;0.60;;;;;;;;;;5070135;28;20048;-54
2024/03/25 06:21:42;;;;;;;1.38;0.80;;;;;;;;;;5070414;28;20048;-55
2024/03/25 06:24:08;;;;;;;2.22;0.70;;;;;;;;;;5070429;28;20093;-56
2024/03/25 06:26:34;;;;;;;0.77;0.47;;;;;;;;;;5070355;28;20036;-50
2024/03/25 06:28:59;;;;;;;1.48;0.80;;;;;;;;;;5070506;28;20036;-56
2024/03/25 06:34:17;;;;;;;1.25;0.60;;;;;;;;;;5069239;28;20102;-56
2024/03/25 06:36:43;;;;;;;1.20;0.65;;;;;;;;;;5070239;28;20039;-56
2024/03/25 06:39:09;;;;;;;1.42;0.55;;;;;;;;;;5069571;28;20104;-54
2024/03/25 06:41:34;;;;;;;0.77;0.50;;;;;;;;;;5068378;28;20124;-55
2024/03/25 06:43:59;;;;;;;0.95;0.60;;;;;;;;;;5068572;28;20039;-55
2024/03/25 06:46:25;;;;;;;1.88;0.70;;;;;;;;;;5068958;28;20111;-53
2024/03/25 06:48:52;;;;;;;1.30;0.50;;;;;;;;;;5068973;28;20041;-56
2024/03/25 06:51:17;;;;;;;1.23;0.70;;;;;;;;;;5060266;28;20025;-61
2024/03/25 06:53:43;;;;;;;1.30;0.70;;;;;;;;;;5068496;28;20055;-59
2024/03/25 06:56:08;;;;;;;2.53;0.77;;;;;;;;;;5069022;28;20456;-61
2024/03/25 06:58:34;;;;;;;1.33;0.70;;;;;;;;;;5069669;28;20610;-61
2024/03/25 07:01:05;;;;;;;0.88;0.50;;;;;;;;;;5069511;28;20039;-60
2024/03/25 07:03:31;;;;;;;1.23;0.60;;;;;;;;;;5069648;28;20037;-59
2024/03/25 07:05:56;;;;;;;0.93;0.50;;;;;;;;;;5069703;28;20043;-61
2024/03/25 07:08:22;;;;;;;1.20;0.60;;;;;;;;;;5069625;28;20033;-61
2024/03/25 07:10:48;;;;;;;0.98;0.50;;;;;;;;;;5070035;28;20047;-62
2024/03/25 07:13:13;;;;;;;1.92;0.57;;;;;;;;;;5069495;28;20028;-61
2024/03/25 07:15:39;;;;;;;2.80;0.80;;;;;;;;;;5069990;28;20037;-61
2024/03/25 07:18:05;;;;;;;1.27;0.65;;;;;;;;;;5069939;28;20473;-56
2024/03/25 07:20:31;;;;;;;1.73;0.57;;;;;;;;;;5069356;28;20048;-56
2024/03/25 07:22:57;;;;;;;1.35;0.60;;;;;;;;;;5068653;28;20369;-56
2024/03/25 07:25:23;;;;;;;0.55;0.43;;;;;;;;;;5069699;28;20098;-55
2024/03/25 07:27:52;;;;;;;1.23;0.50;;;;;;;;;;5069580;28;20028;-56
2024/03/25 07:30:17;;;;;;;0.60;0.40;;;;;;;;;;5069561;28;20120;-56
2024/03/25 07:32:45;;;;;;;2.58;0.70;;;;;;;;;;5069030;28;20111;-54
2024/03/25 07:35:11;;;;;;;0.40;0.38;;;;;;;;;;5069128;28;20082;-55
2024/03/25 07:37:36;;;;;;;1.27;0.50;;;;;;;;;;5069149;28;20028;-56
2024/03/25 07:40:03;;;;;;;0.80;0.43;;;;;;;;;;5069645;28;20033;-51
2024/03/25 07:42:29;;;;;;;2.58;0.60;;;;;;;;;;5069780;28;20024;-54
2024/03/25 07:44:54;;;;;;;1.10;0.60;;;;;;;;;;5068266;28;20078;-55
2024/03/25 07:47:19;;;;;;;1.38;0.40;;;;;;;;;;5068789;28;20074;-56
2024/03/25 07:49:45;;;;;;;0.88;0.60;;;;;;;;;;5069601;28;20078;-56
2024/03/25 07:52:10;;;;;;;1.50;0.60;;;;;;;;;;5070436;28;20078;-53
2024/03/25 07:54:37;;;;;;;4.93;0.50;;;;;;;;;;5073447;28;20050;-56
2024/03/25 07:57:03;;;;;;;1.08;0.60;;;;;;;;;;5073470;28;20029;-56
2024/03/25 07:59:29;;;;;;;0.98;0.60;;;;;;;;;;5073091;28;20028;-55
2024/03/25 08:01:54;;;;;;;1.05;0.60;;;;;;;;;;5073178;28;20055;-59
2024/03/25 08:04:19;;;;;;;0.82;0.40;;;;;;;;;;5072993;28;20048;-61
2024/03/25 08:06:45;;;;;;;1.33;0.52;;;;;;;;;;5073062;28;20111;-60
2024/03/25 08:09:10;;;;;;;0.98;0.50;;;;;;;;;;5072734;28;20115;-61
2024/03/25 08:11:35;;;;;;;2.47;0.40;;;;;;;;;;5072946;28;20064;-60
2024/03/25 08:14:01;;;;;;;0.65;0.40;;;;;;;;;;5072984;28;20051;-60
2024/03/25 08:16:26;;;;;;;1.08;0.40;;;;;;;;;;5072530;28;20119;-60
2024/03/25 08:18:52;;;;;;;0.82;0.50;;;;;;;;;;5061384;28;20039;-60
2024/03/25 08:21:17;;;;;;;0.70;0.40;;;;;;;;;;5071402;28;20060;-60
2024/03/25 08:23:45;;;;;;;0.50;0.40;;;;;;;;;;5080401;28;20067;-62
2024/03/25 08:26:11;;;;;;;0.95;0.50;;;;;;;;;;5072221;28;20195;-62
2024/03/25 08:28:37;;;;;;;3.40;0.40;;;;;;;;;;5072232;28;20124;-63
2024/03/25 08:31:03;;;;;;;0.95;0.50;;;;;;;;;;5082488;28;20042;-55
2024/03/25 08:33:28;;;;;;;0.55;0.45;;;;;;;;;;5075279;28;20028;-61
2024/03/25 08:35:54;;;;;;;0.95;0.50;;;;;;;;;;5071528;28;20036;-62
2024/03/25 08:38:19;;;;;;;1.80;0.40;;;;;;;;;;5072371;28;20037;-62
2024/03/25 08:40:44;;;;;;;2.33;0.70;;;;;;;;;;5073897;28;20077;-61
2024/03/25 08:43:09;;;;;;;0.98;0.65;;;;;;;;;;5070343;28;20036;-62
2024/03/25 08:45:35;;;;;;;0.57;0.40;;;;;;;;;;5072136;28;20040;-60
2024/03/25 08:48:00;;;;;;;0.57;0.47;;;;;;;;;;5071966;28;20159;-62
2024/03/25 08:50:25;;;;;;;0.70;0.43;;;;;;;;;;5071921;28;20033;-62
2024/03/25 08:52:51;;;;;;;0.60;0.50;;;;;;;;;;5071919;28;20048;-56
2024/03/25 08:55:16;;;;;;;1.30;0.60;;;;;;;;;;5072079;28;20035;-56
2024/03/25 08:57:41;;;;;;;1.58;0.60;;;;;;;;;;5071641;28;20420;-54
2024/03/25 09:00:10;;;;;;;1.75;0.47;;;;;;;;;;5071929;28;20044;-54
2024/03/25 09:02:36;;;;;;;1.42;0.68;;;;;;;;;;5071358;28;20150;-55
2024/03/25 09:05:05;;;;;;;0.82;0.52;;;;;;;;;;5071000;28;20108;-55
2024/03/25 09:07:30;;;;;;;0.65;0.40;;;;;;;;;;5052586;28;20111;-59
2024/03/25 09:12:39;;;;;;;;;;;;;;;;;;5063199;28;20042;-61
2024/03/25 09:15:06;;;;;;;0.63;0.40;;;;;;;;;;5063251;28;20288;-61
2024/03/25 09:17:31;;;;;;;1.23;0.40;;;;;;;;;;5068249;28;20415;-61
2024/03/25 09:19:56;;;;;;;0.82;0.40;;;;;;;;;;5067230;28;20049;-60
2024/03/25 09:22:23;;;;;;;0.68;0.50;;;;;;;;;;5067310;28;20447;-60
2024/03/25 09:24:49;;;;;;;0.75;0.40;;;;;;;;;;5067756;28;20032;-59
2024/03/25 09:27:15;;;;;;;1.75;0.60;;;;;;;;;;5066728;28;20491;-60
2024/03/25 09:29:41;;;;;;;2.25;0.65;;;;;;;;;;5068412;28;20037;-60
2024/03/25 09:32:07;;;;;;;0.82;0.50;;;;;;;;;;5067500;28;20090;-60
2024/03/25 09:34:32;;;;;;;1.73;0.60;;;;;;;;;;5067551;28;20584;-60
2024/03/25 09:36:58;;;;;;;0.45;0.30;;;;;;;;;;5067164;28;20028;-60
2024/03/25 09:39:23;;;;;;;0.35;0.30;;;;;;;;;;5067692;28;20040;-60
2024/03/25 09:41:50;;;;;;;1.42;0.60;;;;;;;;;;5067682;28;20035;-61
2024/03/25 09:44:18;;;;;;;1.35;0.60;;;;;;;;;;5049616;28;20040;-60
2024/03/25 09:46:44;;;;;;;1.73;0.52;;;;;;;;;;5049554;28;20051;-60
2024/03/25 09:49:09;;;;;;;0.70;0.50;;;;;;;;;;5067167;28;20387;-58
2024/03/25 09:51:34;;;;;;;0.90;0.38;;;;;;;;;;5066927;28;20053;-61
2024/03/25 09:54:00;;;;;;;2.10;0.65;;;;;;;;;;5067436;28;20040;-60
2024/03/25 09:56:26;;;;;;;1.35;0.50;;;;;;;;;;5067822;28;20101;-59
2024/03/25 09:58:51;;;;;;;1.02;0.50;;;;;;;;;;5066625;28;20044;-61
2024/03/25 10:01:17;;;;;;;1.95;0.60;;;;;;;;;;5065850;28;20071;-59
2024/03/25 10:03:42;;;;;;;1.20;0.43;;;;;;;;;;5049220;28;20037;-61
2024/03/25 10:06:09;;;;;;;0.65;0.40;;;;;;;;;;5066769;28;20036;-61
2024/03/25 10:08:35;;;;;;;0.70;0.32;;;;;;;;;;5067105;28;20627;-61
2024/03/25 10:11:02;;;;;;;0.73;0.40;;;;;;;;;;5067138;28;20044;-62
2024/03/25 10:13:27;;;;;;;1.67;0.60;;;;;;;;;;5064837;28;20028;-62
2024/03/25 10:15:54;;;;;;;1.30;0.60;;;;;;;;;;5066350;28;20040;-59
2024/03/25 10:18:20;;;;;;;0.95;0.50;;;;;;;;;;5065989;28;20027;-59
2024/03/25 10:20:51;;;;;;;1.55;0.50;;;;;;;;;;5067083;28;20052;-61
2024/03/25 10:23:21;;;;;;;1.02;0.50;;;;;;;;;;5066919;28;20138;-60
2024/03/25 10:25:48;;;;;;;1.92;0.55;;;;;;;;;;5052716;28;20040;-60
2024/03/25 10:28:13;;;;;;;1.08;0.50;;;;;;;;;;5066658;28;20132;-61
2024/03/25 10:30:40;;;;;;;0.85;0.52;;;;;;;;;;5066053;28;20437;-61
2024/03/25 10:33:06;;;;;;;1.70;0.50;;;;;;;;;;5065800;28;20499;-61
2024/03/25 10:35:37;;;;;;;2.20;0.43;;;;;;;;;;5058670;28;20051;-61
2024/03/25 10:38:07;;;;;;;0.60;0.40;;;;;;;;;;5060314;28;20051;-61
2024/03/25 10:40:34;;;;;;;0.85;0.47;;;;;;;;;;5064934;28;20473;-60
2024/03/25 10:43:02;;;;;;;1.13;0.63;;;;;;;;;;5066415;28;20483;-61
2024/03/25 10:45:32;;;;;;;1.00;0.47;;;;;;;;;;5066878;28;20158;-61
2024/03/25 10:48:00;;;;;;;1.00;0.50;;;;;;;;;;5066778;28;20530;-61
2024/03/25 10:50:29;;;;;;;1.30;0.50;;;;;;;;;;5066352;28;20024;-61
2024/03/25 10:52:54;;;;;;;1.75;0.60;;;;;;;;;;5047839;28;20976;-61
2024/03/25 10:55:21;;;;;;;2.47;0.45;;;;;;;;;;5066272;28;20041;-60
2024/03/25 10:57:47;;;;;;;1.98;0.68;;;;;;;;;;5065906;28;20117;-59
2024/03/25 11:00:15;;;;;;;1.20;0.50;;;;;;;;;;5066218;28;20048;-60
2024/03/25 11:02:41;;;;;;;1.75;0.45;;;;;;;;;;5048414;28;20060;-61
2024/03/25 11:05:07;;;;;;;1.60;0.45;;;;;;;;;;5065685;28;20086;-61
2024/03/25 11:07:33;;;;;;;1.25;0.55;;;;;;;;;;5063641;28;20037;-61
2024/03/25 11:10:06;;;;;;;1.63;0.60;;;;;;;;;;5066098;28;20037;-61
2024/03/25 11:12:34;;;;;;;;;;;;;;;;;;5066329;28;20089;-61
2024/03/25 11:15:01;;;;;;;0.88;0.60;;;;;;;;;;5066351;28;19916;-61
2024/03/25 11:17:26;;;;;;;1.15;0.60;;;;;;;;;;5065384;28;20499;-60
2024/03/25 11:19:52;;;;;;;1.70;0.60;;;;;;;;;;5065929;28;20086;-61
2024/03/25 11:22:24;;;;;;;0.65;0.43;;;;;;;;;;5066545;28;20048;-60
2024/03/25 11:24:51;;;;;;;1.77;0.60;;;;;;;;;;5066285;28;20036;-59
2024/03/25 11:27:21;;;;;;;1.25;0.47;;;;;;;;;;5067119;28;20021;-60
2024/03/25 11:29:47;;;;;;;1.30;0.60;;;;;;;;;;5070109;28;20040;-61
2024/03/25 11:32:13;;;;;;;0.98;0.47;;;;;;;;;;5069448;28;20044;-60
2024/03/25 11:34:38;;;;;;;1.90;0.57;;;;;;;;;;5068764;28;20064;-61
2024/03/25 11:37:04;;;;;;;1.90;0.82;;;;;;;;;;5069718;28;20036;-61
2024/03/25 11:39:29;;;;;;;1.23;0.60;;;;;;;;;;5070447;28;20039;-61
2024/03/25 11:41:55;;;;;;;1.55;0.52;;;;;;;;;;5069502;28;20088;-61
2024/03/25 11:44:22;;;;;;;1.05;0.50;;;;;;;;;;5051896;28;20044;-61
2024/03/25 11:46:47;;;;;;;1.50;0.50;;;;;;;;;;5069617;28;20120;-61
2024/03/25 11:49:14;;;;;;;1.77;0.50;;;;;;;;;;5069145;28;20109;-61
2024/03/25 11:51:41;;;;;;;2.08;0.55;;;;;;;;;;5069549;28;20044;-62
2024/03/25 11:54:07;;;;;;;1.52;0.50;;;;;;;;;;5070021;28;20069;-61
2024/03/25 11:56:32;;;;;;;1.42;0.68;;;;;;;;;;5069297;28;20646;-60
2024/03/25 11:59:02;;;;;;;1.13;0.52;;;;;;;;;;5068598;28;20477;-60
2024/03/25 12:01:28;;;;;;;1.25;0.50;;;;;;;;;;5069169;28;20032;-60
2024/03/25 12:03:54;;;;;;;0.65;0.43;;;;;;;;;;5069041;28;20029;-59
2024/03/25 12:06:19;;;;;;;1.05;0.47;;;;;;;;;;5069101;28;20520;-61
2024/03/25 12:11:17;;;;;;;3.17;0.80;;;;;;;;;;5069754;28;20024;-61
2024/03/25 12:11:30;;;;;;;1.50;0.60;;;;;;;;;;5068800;28;20504;-60
2024/03/25 12:13:55;;;;;;;1.52;0.60;;;;;;;;;;5068578;28;20040;-61
2024/03/25 12:16:21;;;;;;;1.00;0.60;;;;;;;;;;5052060;28;20037;-59
2024/03/25 12:18:46;;;;;;;1.15;0.50;;;;;;;;;;5067484;28;20474;-61
2024/03/25 12:21:12;;;;;;;2.00;0.85;;;;;;;;;;5068409;28;20072;-61
2024/03/25 12:23:37;;;;;;;0.95;0.50;;;;;;;;;;5068876;28;20373;-60
2024/03/25 12:26:04;;;;;;;1.58;0.63;;;;;;;;;;5069300;28;20495;-60
2024/03/25 12:28:35;;;;;;;2.03;0.70;;;;;;;;;;5069072;28;20032;-60
2024/03/25 12:31:00;;;;;;;1.17;0.50;;;;;;;;;;5069273;28;20032;-61
2024/03/25 12:33:25;;;;;;;1.38;0.50;;;;;;;;;;5068692;28;20043;-60
2024/03/25 12:35:52;;;;;;;1.52;0.65;;;;;;;;;;5068709;28;20098;-60
2024/03/25 12:38:28;;;;;;;1.15;0.55;;;;;;;;;;5067927;28;20032;-60
2024/03/25 12:40:54;;;;;;;2.80;0.60;;;;;;;;;;5065321;28;20489;-61
2024/03/25 12:43:20;;;;;;;1.38;0.50;;;;;;;;;;5068508;28;20029;-61
2024/03/25 12:45:45;;;;;;;0.82;0.30;;;;;;;;;;5068671;28;20357;-61
2024/03/25 12:48:10;;;;;;;1.35;0.60;;;;;;;;;;5069117;28;20135;-61
2024/03/25 12:50:36;;;;;;;0.85;0.47;;;;;;;;;;5068453;28;20468;-58
2024/03/25 12:53:02;;;;;;;1.38;0.40;;;;;;;;;;5060864;28;20717;-59
2024/03/25 12:55:29;;;;;;;1.90;0.60;;;;;;;;;;5074104;28;20051;-58
2024/03/25 12:57:54;;;;;;;1.42;0.60;;;;;;;;;;5070796;28;20107;-60
2024/03/25 13:00:20;;;;;;;2.78;0.80;;;;;;;;;;5067900;28;20166;-60
2024/03/25 13:02:45;;;;;;;1.25;0.68;;;;;;;;;;5068666;28;20468;-59
2024/03/25 13:05:10;;;;;;;0.75;0.50;;;;;;;;;;5067391;28;20432;-61
2024/03/25 13:07:36;;;;;;;1.35;0.60;;;;;;;;;;5067484;28;20041;-61
2024/03/25 13:10:03;;;;;;;1.73;0.60;;;;;;;;;;5067603;28;20381;-60
2024/03/25 13:12:28;;;;;;;1.63;0.60;;;;;;;;;;5068105;28;20504;-60
2024/03/25 13:14:53;;;;;;;1.15;0.60;;;;;;;;;;5068731;28;20058;-59
2024/03/25 13:17:19;;;;;;;2.13;0.55;;;;;;;;;;5070953;28;20029;-60
2024/03/25 13:19:44;;;;;;;1.17;0.50;;;;;;;;;;5071231;28;20106;-59
2024/03/25 13:22:09;;;;;;;2.33;0.70;;;;;;;;;;5070564;28;20082;-60
2024/03/25 13:24:35;;;;;;;2.25;0.80;;;;;;;;;;5066997;28;20094;-60
2024/03/25 13:27:01;;;;;;;1.52;0.60;;;;;;;;;;5069934;28;20053;-60
2024/03/25 13:29:26;;;;;;;2.22;0.70;;;;;;;;;;5068860;28;20033;-60
2024/03/25 13:31:51;;;;;;;1.92;0.60;;;;;;;;;;5064218;28;20039;-58
2024/03/25 13:34:16;;;;;;;1.70;0.77;;;;;;;;;;5067469;28;20111;-61
2024/03/25 13:36:42;;;;;;;1.77;0.60;;;;;;;;;;5069347;28;20020;-61
2024/03/25 13:39:08;;;;;;;2.13;0.80;;;;;;;;;;5055479;28;20040;-62
2024/03/25 13:41:34;;;;;;;1.50;0.63;;;;;;;;;;5068049;28;20035;-63
2024/03/25 13:44:00;;;;;;;1.80;0.80;;;;;;;;;;5058603;28;20036;-62
2024/03/25 13:46:25;;;;;;;2.03;0.77;;;;;;;;;;5071427;28;20432;-62
2024/03/25 13:48:51;;;;;;;1.25;0.50;;;;;;;;;;5065237;28;20068;-62
2024/03/25 13:51:16;;;;;;;1.45;0.60;;;;;;;;;;5067135;28;20107;-62
2024/03/25 13:53:41;;;;;;;4.70;0.80;;;;;;;;;;5066843;28;20142;-61
2024/03/25 13:56:07;;;;;;;1.48;0.60;;;;;;;;;;5067049;28;20039;-62
2024/03/25 13:58:32;;;;;;;1.38;0.60;;;;;;;;;;5067306;28;20085;-62
2024/03/25 14:01:00;;;;;;;2.10;0.65;;;;;;;;;;5069778;28;20040;-62
2024/03/25 14:03:26;;;;;;;1.02;0.50;;;;;;;;;;5064153;28;20642;-62
2024/03/25 14:05:51;;;;;;;2.03;0.65;;;;;;;;;;5049166;28;20115;-62
2024/03/25 14:08:17;;;;;;;2.97;0.70;;;;;;;;;;5066900;28;20032;-62
2024/03/25 14:10:43;;;;;;;1.08;0.60;;;;;;;;;;5066625;28;20062;-62
2024/03/25 14:13:08;;;;;;;1.95;0.60;;;;;;;;;;5066610;28;20086;-63
2024/03/25 14:15:33;;;;;;;2.20;0.75;;;;;;;;;;5067388;28;20377;-62
2024/03/25 14:17:59;;;;;;;1.70;0.82;;;;;;;;;;5066804;28;20029;-62
2024/03/25 14:20:24;;;;;;;1.75;0.70;;;;;;;;;;5066466;28;20063;-62
2024/03/25 14:22:49;;;;;;;1.38;0.70;;;;;;;;;;5066760;28;20542;-62
2024/03/25 14:25:15;;;;;;;1.85;0.77;;;;;;;;;;5066800;28;20029;-62
2024/03/25 14:27:40;;;;;;;3.60;0.63;;;;;;;;;;5066489;28;20040;-61
2024/03/25 14:30:07;;;;;;;1.85;0.75;;;;;;;;;;5066887;28;20086;-62
2024/03/25 14:32:32;;;;;;;4.72;0.82;;;;;;;;;;5065240;28;20031;-61
2024/03/25 14:34:58;;;;;;;0.90;0.60;;;;;;;;;;5066245;28;20037;-62
2024/03/25 14:37:24;;;;;;;1.65;0.70;;;;;;;;;;5066022;28;20545;-62
2024/03/25 14:39:49;;;;;;;2.30;0.70;;;;;;;;;;5066331;28;20044;-62